Detall de PIREP

Printer-friendly versionPDF version

[2014/02/28 19:16:00]
Flight IATA:CT1004
Pilot Number:044
Company ICAO:CAT
Aircraft Type:F100/A
PAX:100
Aircraft Registration:PFJ
Departing Airport: LEBL
Destination Airport: LIRF
Alternate Airport:LIEO
Online: VATSIM
Route:VERSO UM601 GINOX UQ710 GITRI UZ924 ESINO
Flight Level:F300
No Slew and time accel
No pause
Crash detect
Detect pilot in Cockpit between each 30 and 45 minutes
19:16 Zero fuel Weight: 81825 Lbs, Fuel Weight: 15599 Lbs
19:16 VATSIM:LEBL 281900Z 30018KT 280V340 CAVOK 12/M03 Q1008 NOSIG
19:16 VATSIM:LIRF 281850Z 22011KT 9999 SCT025 13/08 Q1008 NOSIG
19:17 VOICE CATALONIAN / MWC 2014 BARCELONA CHARTER
19:18 Parking Brakes off
19:27 Take-off
19:27 Take off Weight: 96834 Lbs
19:27 Wind: 286º @ 017 Knots Heading: 250º
19:27 POS N41º 17´ 06´´ E002º 04´ 56´´
19:28 Flaps:1 at 181 Knots
19:28 Gear Up: 185 Knots
19:28 Flaps:0 at 197 Knots
19:43 Wind:320º@051 Knots Heading: 015º Ground Speed: 336 Knots Altitude 27775 ft
19:44 TOC
19:44 Fuel Weight: 12992 Lb
19:58 Wind:333º@039 Knots Heading: 088º Ground Speed: 442 Knots Altitude 29796 ft
20:13 Wind:255º@012 Knots Heading: 094º Ground Speed: 438 Knots Altitude 29750 ft
20:28 Wind:178º@017 Knots Heading: 101º Ground Speed: 421 Knots Altitude 29744 ft
20:28 TOD
20:28 Fuel Weight: 9493 Lb
20:43 Wind:133º@013 Knots Heading: 008º Ground Speed: 287 Knots Altitude 9839 ft
20:58 Wind:082º@005 Knots Heading: 109º Ground Speed: 212 Knots Altitude 5866 ft
21:00 Flaps:1 at 184 Knots
21:02 Flaps:2 at 162 Knots
21:05 Flaps:3 at 145 Knots
21:06 Gear Down: 141 Knots
21:07 Flaps:4 at 130 Knots
21:10 TouchDown:Rate -209 ft/min Speed: 116 Knots
21:10 VATSIM:LIRF 282050Z 11007KT 100V170 9999 SCT030 11/08 Q1007 NOSIG
21:10 Land
21:10 Wind:110º@007 Knots
21:10 Heading: 164º
21:10 Flight Duration: 01:42
21:10 Landing Weight: 89291 Lbs
21:10 POS N41º 47´ 53´´ E012º 13´ 59´´
21:14 Parking brakes on
21:14 Block to Block Duration: 01:56
21:14 Final Fuel: 7358 Lbls
21:14 Spent Fuel: 8240 Lbls
21:14 Flight Length: 591 NM
21:14 TOD Land Length: 180 NM

Exportar CSV

Powered by Drupal - Modified by Danger4k